Time;durP1;ratioP1;P1;durP2;ratioP2;P2;SDS_P1;SDS_P2;PMS_P1;PMS_P2;Temp;Humidity;BMP_temperature;BMP_pressure;BME280_temperature;BME280_humidity;BME280_pressure;Samples;Min_cycle;Max_cycle;Signal;HPM_P1;HPM_P2
2023/03/24 00:01:56;;;;;;;30.50;13.95;;;10.40;91.60;;;;;;6202828;23;20024;-79
2023/03/24 00:04:24;;;;;;;31.45;15.55;;;10.50;91.70;;;;;;6226274;23;20020;-79
2023/03/24 00:06:52;;;;;;;32.47;14.45;;;10.40;91.70;;;;;;6209002;23;20020;-79
2023/03/24 00:09:20;;;;;;;32.72;14.52;;;10.40;91.80;;;;;;6202206;23;20755;-79
2023/03/24 00:11:47;;;;;;;32.33;14.80;;;10.30;91.90;;;;;;6203742;23;20471;-79
2023/03/24 00:14:14;;;;;;;36.40;16.60;;;10.40;92.00;;;;;;6207298;23;20020;-79
2023/03/24 00:16:42;;;;;;;34.92;15.73;;;10.30;92.10;;;;;;6207300;23;20027;-79
2023/03/24 00:19:12;;;;;;;36.08;14.70;;;10.30;92.10;;;;;;6233741;23;20020;-79
2023/03/24 00:21:43;;;;;;;35.28;15.05;;;10.10;92.10;;;;;;6204354;23;20456;-79
2023/03/24 00:24:11;;;;;;;33.47;14.43;;;10.10;92.10;;;;;;6204284;23;20346;-79
2023/03/24 00:26:40;;;;;;;28.90;13.85;;;10.10;92.20;;;;;;6208217;23;20079;-79
2023/03/24 00:29:12;;;;;;;29.67;14.13;;;10.20;92.20;;;;;;6229446;23;20456;-79
2023/03/24 00:31:42;;;;;;;32.28;14.57;;;9.60;92.10;;;;;;6230297;23;20074;-79
2023/03/24 00:34:12;;;;;;;31.85;14.48;;;10.20;92.50;;;;;;6202159;23;20036;-79
2023/03/24 00:36:43;;;;;;;30.48;13.93;;;10.20;92.50;;;;;;6203202;23;20020;-79
2023/03/24 00:39:12;;;;;;;29.73;13.88;;;10.10;92.60;;;;;;6203150;23;20035;-79
2023/03/24 00:41:43;;;;;;;33.70;15.25;;;10.10;92.60;;;;;;6204334;23;20028;-79
2023/03/24 00:44:16;;;;;;;32.17;13.98;;;10.10;92.80;;;;;;6203967;23;20094;-78
2023/03/24 00:46:54;;;;;;;29.48;12.95;;;10.10;93.00;;;;;;6203691;23;20103;-79
2023/03/24 00:49:43;;;;;;;28.30;13.77;;;10.10;92.90;;;;;;6203633;23;20455;-79
2023/03/24 00:52:32;;;;;;;28.25;13.45;;;10.00;92.80;;;;;;6203771;23;20099;-79
2023/03/24 00:55:05;;;;;;;31.60;13.52;;;9.90;93.00;;;;;;6228707;23;20024;-79
2023/03/24 00:57:35;;;;;;;23.73;13.13;;;10.10;93.30;;;;;;6203943;23;20028;-79
2023/03/24 01:00:13;;;;;;;25.83;12.55;;;10.00;93.20;;;;;;6203753;23;20419;-79
2023/03/24 01:02:40;;;;;;;26.85;13.23;;;9.90;93.20;;;;;;6231446;23;20028;-79
2023/03/24 01:05:11;;;;;;;25.98;12.00;;;9.90;93.20;;;;;;6205202;23;20440;-79
2023/03/24 01:07:42;;;;;;;25.38;11.93;;;9.90;93.30;;;;;;6205928;23;20424;-79
2023/03/24 01:10:12;;;;;;;22.15;12.10;;;9.90;93.30;;;;;;6205953;23;20050;-79
2023/03/24 01:12:40;;;;;;;23.42;11.90;;;10.00;93.50;;;;;;6208239;23;20028;-79
2023/03/24 01:15:19;;;;;;;22.92;12.18;;;9.90;93.60;;;;;;6231080;23;20016;-79
2023/03/24 01:17:52;;;;;;;24.25;12.00;;;9.80;93.50;;;;;;6207387;23;20028;-79
2023/03/24 01:20:24;;;;;;;24.83;11.88;;;9.70;93.50;;;;;;6230910;23;20526;-79
2023/03/24 01:22:51;;;;;;;21.25;11.65;;;10.00;93.70;;;;;;6207789;23;20027;-79
2023/03/24 01:25:22;;;;;;;25.33;11.90;;;9.80;93.60;;;;;;6230612;23;20031;-79
2023/03/24 01:27:51;;;;;;;21.40;10.90;;;9.90;93.60;;;;;;6228204;23;20104;-79
2023/03/24 01:30:21;;;;;;;21.58;10.90;;;9.80;93.60;;;;;;6233190;23;20039;-79
2023/03/24 01:32:50;;;;;;;24.05;11.73;;;9.80;93.60;;;;;;6208566;23;20031;-78
2023/03/24 01:35:19;;;;;;;23.25;12.77;;;9.70;93.60;;;;;;6228582;23;20101;-79
2023/03/24 01:37:47;;;;;;;23.50;11.90;;;9.60;93.70;;;;;;6204330;23;20032;-79
2023/03/24 01:40:26;;;;;;;25.95;12.05;;;9.30;93.70;;;;;;6207792;23;20028;-79
2023/03/24 01:42:54;;;;;;;22.45;11.07;;;9.70;93.80;;;;;;6212730;23;20356;-79
2023/03/24 01:45:43;;;;;;;21.35;10.77;;;9.70;94.20;;;;;;6204122;23;20020;-79
2023/03/24 01:48:33;;;;;;;22.15;10.77;;;9.40;93.80;;;;;;6203359;23;20028;-79
2023/03/24 01:51:08;;;;;;;21.27;10.27;;;9.50;93.90;;;;;;6207457;23;20444;-79
2023/03/24 01:53:39;;;;;;;21.02;10.93;;;9.50;94.00;;;;;;6208625;23;20074;-79
2023/03/24 01:56:08;;;;;;;23.08;10.90;;;9.50;94.10;;;;;;6229275;23;20551;-79
2023/03/24 01:58:44;;;;;;;22.73;11.25;;;9.50;94.20;;;;;;6231007;23;20375;-79
2023/03/24 02:01:20;;;;;;;22.38;10.70;;;9.60;94.20;;;;;;6208103;23;20062;-79
2023/03/24 02:04:02;;;;;;;22.13;10.43;;;9.70;94.30;;;;;;6235725;23;20439;-79
2023/03/24 02:06:39;;;;;;;22.38;11.25;;;9.40;94.20;;;;;;6207333;23;20035;-79
2023/03/24 02:09:09;;;;;;;24.27;10.77;;;9.60;94.30;;;;;;6208711;23;20024;-79
2023/03/24 02:11:38;;;;;;;21.17;10.38;;;9.50;94.30;;;;;;6208044;23;20460;-79
2023/03/24 02:14:07;;;;;;;21.63;11.52;;;9.50;94.30;;;;;;6205014;23;20020;-79
2023/03/24 02:17:03;;;;;;;20.73;11.27;;;9.50;94.50;;;;;;6210663;23;20028;-79
2023/03/24 02:19:43;;;;;;;24.20;11.63;;;9.00;94.40;;;;;;6231592;23;20074;-79
2023/03/24 02:22:30;;;;;;;22.23;11.02;;;9.40;94.60;;;;;;6230879;23;20028;-79
2023/03/24 02:25:12;;;;;;;23.17;12.13;;;9.40;94.70;;;;;;6230219;23;20364;-79
2023/03/24 02:27:44;;;;;;;27.80;11.90;;;9.30;94.60;;;;;;6231304;23;20023;-79
2023/03/24 02:30:49;;;;;;;23.50;10.90;;;9.40;94.70;;;;;;6229769;23;20632;-79
2023/03/24 02:33:30;;;;;;;22.33;11.88;;;9.40;94.70;;;;;;6239382;23;20020;-79
2023/03/24 02:36:04;;;;;;;24.95;11.38;;;9.40;94.80;;;;;;6211191;23;20381;-79
2023/03/24 02:39:23;;;;;;;21.65;11.00;;;9.30;94.80;;;;;;6234004;23;20024;-79
2023/03/24 02:42:15;;;;;;;22.58;12.00;;;9.30;94.90;;;;;;6085227;23;20525;-79
2023/03/24 02:44:51;;;;;;;19.85;10.77;;;9.20;94.90;;;;;;6086138;23;20544;-79
2023/03/24 02:47:47;;;;;;;23.27;11.95;;;9.10;94.90;;;;;;6198160;22;20060;-79
2023/03/24 02:50:43;;;;;;;32.08;11.93;;;9.30;94.90;;;;;;6230207;23;20333;-79
2023/03/24 02:53:18;;;;;;;26.10;12.63;;;9.20;94.90;;;;;;6233223;23;20131;-79
2023/03/24 02:56:33;;;;;;;21.67;11.32;;;9.20;95.10;;;;;;6230640;23;20371;-79
2023/03/24 02:59:18;;;;;;;22.65;12.15;;;9.20;95.10;;;;;;6209673;23;20501;-79
2023/03/24 03:02:07;;;;;;;24.83;12.88;;;9.10;95.30;;;;;;6210305;23;20020;-79
2023/03/24 03:04:48;;;;;;;29.13;12.40;;;9.20;95.40;;;;;;6207065;23;20028;-79
2023/03/24 03:07:21;;;;;;;25.13;12.55;;;9.10;95.60;;;;;;6205987;23;20020;-79
2023/03/24 03:10:18;;;;;;;22.63;11.00;;;9.20;95.70;;;;;;6204998;23;20461;-79
2023/03/24 03:12:50;;;;;;;26.10;11.35;;;9.00;95.50;;;;;;6230177;23;20410;-79
2023/03/24 03:15:26;;;;;;;23.80;12.40;;;9.10;95.60;;;;;;6204442;23;20025;-79
2023/03/24 03:18:03;;;;;;;23.48;11.95;;;9.20;95.50;;;;;;6205260;23;20103;-79
2023/03/24 03:20:37;;;;;;;24.95;13.00;;;9.20;95.70;;;;;;6231482;23;20020;-79
2023/03/24 03:23:12;;;;;;;21.20;11.30;;;9.10;95.60;;;;;;6206154;23;20451;-79
2023/03/24 03:25:56;;;;;;;23.98;11.80;;;9.00;95.50;;;;;;6230108;23;20020;-79
2023/03/24 03:28:29;;;;;;;20.50;11.15;;;9.10;95.60;;;;;;6210226;23;20143;-79
2023/03/24 03:31:00;;;;;;;19.88;10.68;;;9.10;95.70;;;;;;6204773;23;20112;-79
2023/03/24 03:33:45;;;;;;;22.33;11.70;;;9.00;95.80;;;;;;6205176;23;20020;-79
2023/03/24 03:36:39;;;;;;;18.23;10.60;;;9.00;95.70;;;;;;6205734;23;20024;-79
2023/03/24 03:39:32;;;;;;;22.00;11.70;;;8.90;95.80;;;;;;6205986;23;20051;-79
2023/03/24 03:42:05;;;;;;;20.88;10.98;;;9.00;95.90;;;;;;6252386;22;20048;-79
2023/03/24 03:44:33;;;;;;;21.52;10.75;;;9.10;96.00;;;;;;6234346;22;20405;-79
2023/03/24 03:47:05;;;;;;;21.60;11.27;;;9.00;96.10;;;;;;6204888;22;20035;-79
2023/03/24 03:49:39;;;;;;;21.30;10.85;;;8.90;96.10;;;;;;6205489;23;20356;-79
2023/03/24 03:52:07;;;;;;;21.40;11.90;;;9.00;96.20;;;;;;6209060;23;20020;-79
2023/03/24 03:54:36;;;;;;;24.23;12.32;;;8.70;96.10;;;;;;6207939;23;20095;-79
2023/03/24 03:57:04;;;;;;;21.05;11.25;;;8.90;96.10;;;;;;6209556;23;20016;-79
2023/03/24 03:59:38;;;;;;;23.73;11.82;;;8.90;96.30;;;;;;6230422;23;20427;-79
2023/03/24 04:02:52;;;;;;;21.60;11.45;;;8.90;96.30;;;;;;6238747;23;20023;-79
2023/03/24 04:05:34;;;;;;;21.55;11.40;;;8.90;96.40;;;;;;6235108;22;20024;-79
2023/03/24 04:08:30;;;;;;;20.40;11.20;;;7.70;96.00;;;;;;6208188;23;20024;-79
2023/03/24 04:11:40;;;;;;;21.60;12.00;;;8.70;96.20;;;;;;6230280;23;20035;-79
2023/03/24 04:14:53;;;;;;;19.38;10.57;;;8.90;96.30;;;;;;6229594;23;20020;-79
2023/03/24 04:17:54;;;;;;;21.70;10.15;;;8.80;96.30;;;;;;6237921;22;20086;-79
2023/03/24 04:20:51;;;;;;;23.88;10.23;;;8.80;96.30;;;;;;6223039;23;20023;-79
2023/03/24 04:23:45;;;;;;;20.23;10.95;;;8.80;96.10;;;;;;6204839;23;20503;-79
2023/03/24 04:27:00;;;;;;;22.00;10.98;;;8.80;96.00;;;;;;6234858;23;20542;-79
2023/03/24 04:29:53;;;;;;;21.20;10.10;;;8.90;96.00;;;;;;6230208;23;20020;-79
2023/03/24 04:32:29;;;;;;;23.33;10.68;;;8.80;95.90;;;;;;6229173;23;20016;-79
2023/03/24 04:35:01;;;;;;;22.52;11.27;;;8.80;96.10;;;;;;6204803;23;20024;-79
2023/03/24 04:37:48;;;;;;;25.27;11.68;;;8.80;96.00;;;;;;6234351;23;20031;-79
2023/03/24 04:40:23;;;;;;;22.52;11.25;;;8.80;95.90;;;;;;6229569;23;20082;-79
2023/03/24 04:42:53;;;;;;;23.40;12.80;;;8.80;95.90;;;;;;6234251;23;20028;-79
2023/03/24 04:45:26;;;;;;;19.50;10.98;;;8.80;95.90;;;;;;6205523;23;20055;-79
2023/03/24 04:48:08;;;;;;;21.35;11.10;;;8.80;96.00;;;;;;6234416;22;20189;-79
2023/03/24 04:50:56;;;;;;;23.73;12.32;;;8.30;95.90;;;;;;6207270;23;20434;-79
2023/03/24 04:53:26;;;;;;;24.08;11.43;;;8.70;96.00;;;;;;6205396;23;20027;-79
2023/03/24 04:56:06;;;;;;;26.38;12.65;;;8.60;95.80;;;;;;6229757;23;20020;-79
2023/03/24 04:58:52;;;;;;;28.90;13.98;;;8.70;95.90;;;;;;6231251;23;20034;-79
2023/03/24 05:01:20;;;;;;;27.88;14.77;;;8.80;96.00;;;;;;6228812;23;20426;-79
2023/03/24 05:04:08;;;;;;;26.40;13.00;;;8.80;96.00;;;;;;6198084;23;20154;-79
2023/03/24 05:06:37;;;;;;;27.10;14.15;;;8.80;95.90;;;;;;6176786;23;20035;-79
2023/03/24 05:09:07;;;;;;;26.42;13.38;;;8.90;96.00;;;;;;6147935;23;20030;-79
2023/03/24 05:11:35;;;;;;;27.95;13.50;;;8.90;96.00;;;;;;6150855;23;20021;-81
2023/03/24 05:14:07;;;;;;;29.08;14.55;;;8.90;95.90;;;;;;6151955;23;20100;-79
2023/03/24 05:16:36;;;;;;;24.38;13.93;;;8.80;95.60;;;;;;6147335;23;20100;-79
2023/03/24 05:19:06;;;;;;;33.65;15.63;;;8.80;96.00;;;;;;6177926;23;20132;-79
2023/03/24 05:21:34;;;;;;;33.28;16.60;;;8.90;95.90;;;;;;6145522;23;20028;-79
2023/03/24 05:24:06;;;;;;;34.60;16.90;;;8.80;96.10;;;;;;6151960;23;20492;-79
2023/03/24 05:26:37;;;;;;;33.25;17.83;;;9.00;96.00;;;;;;6172874;23;20557;-79
2023/03/24 05:29:13;;;;;;;31.33;17.45;;;9.00;96.00;;;;;;6176984;23;20662;-79
2023/03/24 05:31:40;;;;;;;35.03;16.40;;;9.10;95.60;;;;;;6152044;23;20041;-79
2023/03/24 05:34:10;;;;;;;34.72;15.48;;;9.00;95.60;;;;;;6147064;23;20017;-79
2023/03/24 05:36:52;;;;;;;30.03;14.80;;;9.00;95.50;;;;;;6154961;23;20088;-79
2023/03/24 05:39:21;;;;;;;25.48;14.57;;;9.10;95.60;;;;;;6171857;23;20407;-79
2023/03/24 05:41:59;;;;;;;30.52;14.63;;;9.10;95.80;;;;;;6214862;23;20534;-79
2023/03/24 05:44:26;;;;;;;32.10;14.85;;;9.10;95.60;;;;;;6209465;23;20406;-79
2023/03/24 05:47:19;;;;;;;27.63;14.30;;;9.20;95.50;;;;;;6236744;22;20031;-79
2023/03/24 05:49:46;;;;;;;26.55;13.65;;;9.30;95.40;;;;;;6204475;23;20024;-79
2023/03/24 05:52:19;;;;;;;28.05;14.40;;;9.20;95.40;;;;;;6206233;23;20144;-79
2023/03/24 05:54:53;;;;;;;28.60;13.82;;;9.30;95.30;;;;;;6207474;23;20250;-79
2023/03/24 05:57:25;;;;;;;30.20;14.80;;;9.30;95.40;;;;;;6205342;23;20097;-79
2023/03/24 06:00:16;;;;;;;23.75;13.55;;;9.40;95.50;;;;;;6207566;23;20027;-79
2023/03/24 06:02:56;;;;;;;30.83;13.88;;;9.20;95.10;;;;;;6210509;23;20087;-79
2023/03/24 06:05:39;;;;;;;29.13;14.77;;;9.50;95.00;;;;;;6208452;23;20016;-79
2023/03/24 06:31:33;;;;;;;29.65;13.88;;;10.70;92.90;;;;;;6219125;22;20039;-80
2023/03/24 06:34:24;;;;;;;31.33;15.25;;;10.60;92.10;;;;;;5059111;27;20395;-80
2023/03/24 06:37:12;;;;;;;30.60;14.30;;;10.90;91.70;;;;;;5053707;28;20426;-81
2023/03/24 06:39:40;;;;;;;26.88;13.50;;;10.90;91.50;;;;;;5062763;28;20067;-80
2023/03/24 06:42:09;;;;;;;24.92;11.48;;;11.00;91.50;;;;;;5063510;28;20052;-81
2023/03/24 06:44:39;;;;;;;23.05;11.68;;;11.00;91.10;;;;;;5063402;28;20048;-82
2023/03/24 06:47:07;;;;;;;24.05;11.93;;;11.40;91.30;;;;;;5068582;28;20114;-81
2023/03/24 06:49:36;;;;;;;19.20;10.48;;;11.40;91.20;;;;;;5061408;28;20068;-81
2023/03/24 06:52:03;;;;;;;18.98;10.35;;;11.80;91.10;;;;;;5058431;28;20962;-80
2023/03/24 06:54:38;;;;;;;36.47;12.27;;;11.60;90.40;;;;;;5033604;28;20080;-80
2023/03/24 06:57:08;;;;;;;21.05;11.43;;;11.70;90.20;;;;;;5030399;28;20045;-81
2023/03/24 07:00:09;;;;;;;20.80;11.10;;;11.90;90.60;;;;;;5016584;28;20053;-80
2023/03/24 07:02:48;;;;;;;20.25;11.10;;;12.10;88.90;;;;;;5015648;28;20476;-80
2023/03/24 07:05:19;;;;;;;20.75;11.60;;;12.20;87.80;;;;;;5029226;28;20444;-80
2023/03/24 07:07:47;;;;;;;20.98;11.15;;;12.10;87.80;;;;;;5030049;28;20057;-80
2023/03/24 07:10:36;;;;;;;20.85;11.98;;;12.40;87.30;;;;;;5029534;28;20056;-80
2023/03/24 07:13:04;;;;;;;24.83;11.48;;;12.60;86.20;;;;;;5034429;28;22262;-80
2023/03/24 07:15:34;;;;;;;18.52;9.70;;;12.80;86.90;;;;;;5018266;28;21119;-81
2023/03/24 07:18:02;;;;;;;19.35;10.35;;;13.00;85.60;;;;;;5020451;28;20045;-81
2023/03/24 07:20:45;;;;;;;20.15;10.57;;;13.00;85.10;;;;;;5022536;28;20071;-81
2023/03/24 07:23:14;;;;;;;22.77;11.55;;;13.10;84.70;;;;;;5032612;28;20185;-81
2023/03/24 07:25:56;;;;;;;19.40;10.77;;;13.10;84.90;;;;;;5049043;28;20044;-81
2023/03/24 07:28:44;;;;;;;17.95;10.45;;;13.30;84.80;;;;;;5040670;28;22381;-81
2023/03/24 07:31:13;;;;;;;18.65;8.88;;;13.60;83.60;;;;;;5042451;28;20048;-81
2023/03/24 07:33:42;;;;;;;17.77;9.85;;;13.40;82.50;;;;;;4998477;28;20056;-81
2023/03/24 07:36:16;;;;;;;17.73;9.07;;;13.60;82.80;;;;;;5008469;28;20045;-80
2023/03/24 07:38:43;;;;;;;18.13;10.40;;;13.70;82.70;;;;;;5005283;28;20049;-81
2023/03/24 07:41:17;;;;;;;19.67;11.07;;;13.90;82.10;;;;;;5003506;28;20938;-80
2023/03/24 07:43:50;;;;;;;19.08;9.70;;;14.00;81.90;;;;;;5006007;28;20053;-80
2023/03/24 07:46:27;;;;;;;18.33;9.65;;;14.20;81.30;;;;;;5007992;28;20088;-80
2023/03/24 07:48:56;;;;;;;17.45;9.55;;;14.40;80.80;;;;;;4995961;28;20044;-80
2023/03/24 07:51:34;;;;;;;12.95;7.30;;;14.50;80.60;;;;;;4995166;28;20678;-80
2023/03/24 07:54:27;;;;;;;14.98;8.68;;;14.40;79.20;;;;;;4997566;28;20057;-80
2023/03/24 07:56:55;;;;;;;14.98;8.32;;;14.30;79.60;;;;;;4985127;28;20045;-80
2023/03/24 07:59:28;;;;;;;16.00;8.73;;;14.60;79.80;;;;;;5011970;28;20459;-80
2023/03/24 08:02:20;;;;;;;16.08;8.60;;;15.00;79.70;;;;;;4984929;28;20064;-80
2023/03/24 08:05:13;;;;;;;15.88;8.45;;;15.00;78.60;;;;;;4998003;28;20056;-81
2023/03/24 08:07:52;;;;;;;13.80;8.43;;;15.10;78.00;;;;;;4997768;28;20188;-80
2023/03/24 08:10:22;;;;;;;17.45;9.38;;;15.20;77.30;;;;;;5006117;28;20425;-80
2023/03/24 08:12:50;;;;;;;14.75;8.52;;;15.40;78.70;;;;;;4995245;28;20094;-80
2023/03/24 08:15:21;;;;;;;17.05;8.45;;;15.60;78.10;;;;;;5014710;28;20060;-80
2023/03/24 08:17:51;;;;;;;12.82;7.00;;;15.50;77.40;;;;;;4990894;28;20053;-80
2023/03/24 08:20:23;;;;;;;18.60;8.35;;;15.70;77.30;;;;;;4993339;28;20049;-80
2023/03/24 08:22:53;;;;;;;14.75;6.95;;;15.80;76.30;;;;;;4978751;28;20065;-79
2023/03/24 08:25:24;;;;;;;9.95;6.35;;;16.30;75.90;;;;;;5005588;28;20479;-80
2023/03/24 08:27:54;;;;;;;10.93;5.50;;;16.30;74.90;;;;;;4984603;28;20071;-80
2023/03/24 08:30:26;;;;;;;9.40;4.90;;;16.30;73.80;;;;;;4982550;28;20183;-80
2023/03/24 08:32:59;;;;;;;10.25;4.72;;;16.50;73.20;;;;;;4989151;28;20179;-79
2023/03/24 08:35:32;;;;;;;7.20;3.97;;;16.50;72.60;;;;;;4982934;28;20152;-80
2023/03/24 08:38:03;;;;;;;8.50;5.07;;;16.50;71.60;;;;;;4974995;28;20045;-80
2023/03/24 08:40:35;;;;;;;6.38;3.70;;;16.50;71.80;;;;;;4994393;28;20809;-80
2023/03/24 08:43:07;;;;;;;8.95;4.40;;;16.30;71.80;;;;;;4981385;28;22170;-80
2023/03/24 08:45:35;;;;;;;10.57;5.73;;;16.30;71.60;;;;;;5003964;28;20426;-80
2023/03/24 08:48:05;;;;;;;11.77;6.30;;;16.30;73.30;;;;;;4977227;28;20049;-79
2023/03/24 08:50:36;;;;;;;10.48;5.80;;;16.30;73.40;;;;;;4977696;28;20139;-79
2023/03/24 08:53:03;;;;;;;10.48;5.90;;;16.30;72.90;;;;;;4978001;28;20186;-80
2023/03/24 08:55:31;;;;;;;12.45;6.38;;;16.40;72.90;;;;;;4970064;28;20784;-79
2023/03/24 08:57:59;;;;;;;12.82;5.68;;;16.50;72.60;;;;;;4977307;28;20524;-80
2023/03/24 09:00:27;;;;;;;9.63;5.57;;;16.60;72.20;;;;;;4972876;28;20839;-79
2023/03/24 09:03:01;;;;;;;11.40;5.93;;;16.70;72.10;;;;;;4975731;28;20054;-80
2023/03/24 09:05:29;;;;;;;10.10;5.72;;;17.00;72.40;;;;;;4976895;28;20708;-80
2023/03/24 09:08:12;;;;;;;9.75;5.93;;;16.90;72.90;;;;;;4998307;28;20088;-80
2023/03/24 09:10:41;;;;;;;10.50;5.50;;;17.10;71.20;;;;;;4980626;28;20053;-80
2023/03/24 09:13:09;;;;;;;13.13;6.63;;;17.30;73.60;;;;;;5002860;28;20059;-79
2023/03/24 09:15:39;;;;;;;12.27;6.63;;;17.70;73.20;;;;;;4973933;28;20180;-80
2023/03/24 09:18:07;;;;;;;9.13;5.03;;;17.70;70.40;;;;;;4980174;28;22586;-79
2023/03/24 09:20:34;;;;;;;10.90;5.07;;;17.70;70.20;;;;;;4978881;28;20083;-77
2023/03/24 09:23:02;;;;;;;11.50;4.65;;;17.70;70.30;;;;;;4982135;28;20144;-79
2023/03/24 09:25:29;;;;;;;8.25;5.40;;;17.90;70.40;;;;;;4970971;28;20091;-80
2023/03/24 09:27:56;;;;;;;9.15;5.40;;;18.10;70.90;;;;;;4982318;28;20112;-79
2023/03/24 09:30:26;;;;;;;14.73;5.70;;;17.90;69.60;;;;;;4981432;28;20049;-79
2023/03/24 09:32:57;;;;;;;11.30;4.85;;;17.90;71.10;;;;;;4990481;28;20971;-79
2023/03/24 09:35:26;;;;;;;10.52;6.00;;;18.00;70.30;;;;;;4988212;28;20508;-80
2023/03/24 09:37:55;;;;;;;9.35;5.47;;;18.10;69.60;;;;;;4999729;28;20372;-78
2023/03/24 09:40:24;;;;;;;8.20;4.97;;;18.20;69.40;;;;;;5007316;28;20162;-79
2023/03/24 09:43:04;;;;;;;10.20;5.05;;;18.10;68.10;;;;;;4997824;28;20040;-79
2023/03/24 09:45:48;;;;;;;11.00;5.13;;;18.40;68.70;;;;;;4997439;28;20554;-78
2023/03/24 09:48:38;;;;;;;9.13;4.82;;;18.40;67.70;;;;;;4993162;28;20050;-79
2023/03/24 09:51:27;;;;;;;8.43;4.75;;;18.40;67.50;;;;;;4999203;28;20049;-77
2023/03/24 09:54:00;;;;;;;10.23;4.65;;;18.50;67.50;;;;;;5005251;28;20182;-80
2023/03/24 09:56:28;;;;;;;9.18;4.93;;;18.40;67.30;;;;;;5016501;28;22837;-79
2023/03/24 09:59:12;;;;;;;10.82;4.00;;;18.50;67.60;;;;;;4994819;28;20045;-79
2023/03/24 10:01:40;;;;;;;9.10;3.53;;;18.80;66.60;;;;;;4995455;28;20254;-79
2023/03/24 10:04:14;;;;;;;9.45;3.88;;;18.90;65.80;;;;;;5033574;28;20124;-80
2023/03/24 10:06:42;;;;;;;13.60;4.90;;;19.10;64.80;;;;;;5008480;28;20053;-80
2023/03/24 10:09:33;;;;;;;8.40;3.42;;;19.20;64.00;;;;;;4999633;28;20716;-80
2023/03/24 10:12:03;;;;;;;7.63;3.33;;;19.20;64.30;;;;;;5016046;28;20052;-79
2023/03/24 10:14:38;;;;;;;8.82;2.88;;;19.40;63.20;;;;;;5008918;28;20195;-79
2023/03/24 10:17:36;;;;;;;6.97;2.58;;;19.60;63.00;;;;;;5003575;28;20060;-79
2023/03/24 10:20:19;;;;;;;10.35;2.83;;;19.50;61.60;;;;;;5005666;28;20151;-79
2023/03/24 10:23:00;;;;;;;7.85;2.53;;;19.40;61.80;;;;;;5008836;28;20518;-78
2023/03/24 10:26:09;;;;;;;7.05;2.38;;;19.10;61.90;;;;;;5014150;28;20051;-79
2023/03/24 10:28:49;;;;;;;6.25;2.72;;;19.10;63.40;;;;;;4994075;28;20780;-80
2023/03/24 10:31:20;;;;;;;10.10;3.28;;;19.40;61.90;;;;;;5017216;28;20059;-79
2023/03/24 10:33:47;;;;;;;9.88;2.72;;;19.80;61.50;;;;;;5004780;28;20096;-78
2023/03/24 10:36:23;;;;;;;9.75;3.30;;;19.90;60.70;;;;;;4993889;28;20168;-79
2023/03/24 10:38:51;;;;;;;9.15;3.10;;;19.60;60.50;;;;;;4988697;28;20049;-79
2023/03/24 10:41:20;;;;;;;8.68;3.10;;;19.90;60.20;;;;;;5004349;28;20063;-79
2023/03/24 10:43:50;;;;;;;7.43;2.42;;;20.00;60.60;;;;;;5025496;28;22733;-79
2023/03/24 10:46:21;;;;;;;7.28;2.40;;;20.10;60.10;;;;;;5005185;28;20059;-79
2023/03/24 10:48:51;;;;;;;8.40;2.97;;;20.30;60.00;;;;;;4992330;28;20063;-79
2023/03/24 10:51:32;;;;;;;13.13;3.25;;;20.40;59.90;;;;;;5007031;28;20053;-78
2023/03/24 10:54:20;;;;;;;8.20;3.20;;;20.80;59.00;;;;;;5006719;28;20049;-80
2023/03/24 10:56:49;;;;;;;9.07;3.20;;;21.00;58.90;;;;;;4997157;28;20584;-78
2023/03/24 10:59:19;;;;;;;8.07;2.80;;;21.10;58.10;;;;;;5002690;28;20066;-79
2023/03/24 11:01:47;;;;;;;9.85;2.58;;;20.80;58.40;;;;;;4991458;28;20040;-78
2023/03/24 11:04:18;;;;;;;10.35;2.65;;;20.50;58.50;;;;;;5001495;28;20056;-79
2023/03/24 11:07:20;;;;;;;8.00;2.70;;;20.30;59.60;;;;;;5020280;28;20918;-80
2023/03/24 11:10:08;;;;;;;10.27;2.80;;;20.40;59.10;;;;;;4967755;28;20057;-79
2023/03/24 11:12:41;;;;;;;8.57;2.60;;;20.40;59.00;;;;;;5001842;28;20053;-79
2023/03/24 11:15:22;;;;;;;9.93;2.53;;;20.50;59.20;;;;;;4986911;28;20187;-78
2023/03/24 11:18:10;;;;;;;4.70;1.80;;;20.50;58.30;;;;;;5015482;28;20057;-80
2023/03/24 11:20:48;;;;;;;5.55;1.67;;;20.80;57.90;;;;;;5009030;28;20128;-78
2023/03/24 11:23:30;;;;;;;12.85;2.47;;;21.00;58.40;;;;;;4997707;28;20956;-79
2023/03/24 11:26:05;;;;;;;;;;;21.10;57.20;;;;;;5017946;28;20068;-79
2023/03/24 11:28:40;;;;;;;4.57;1.38;;;22.60;58.50;;;;;;5026706;28;19930;-80
2023/03/24 11:31:17;;;;;;;4.25;1.00;;;21.60;56.90;;;;;;4998732;28;20417;-79
2023/03/24 11:33:57;;;;;;;6.32;1.30;;;21.70;56.60;;;;;;5023613;28;20424;-79
2023/03/24 11:36:32;;;;;;;5.93;1.20;;;21.70;55.20;;;;;;4994352;28;20213;-79
2023/03/24 11:39:02;;;;;;;3.45;0.80;;;21.90;55.70;;;;;;5030288;28;20055;-81
2023/03/24 11:41:30;;;;;;;3.42;0.88;;;22.00;55.40;;;;;;5005534;28;20511;-80
2023/03/24 11:44:23;;;;;;;3.75;1.08;;;22.00;55.90;;;;;;5008464;28;20053;-81
2023/03/24 11:47:02;;;;;;;3.55;0.80;;;22.00;54.60;;;;;;5006982;28;20118;-81
2023/03/24 11:49:38;;;;;;;9.13;1.25;;;21.90;54.30;;;;;;5010527;28;20059;-79
2023/03/24 11:52:18;;;;;;;4.28;1.05;;;22.10;55.30;;;;;;5013304;28;20096;-79
2023/03/24 11:54:45;;;;;;;3.67;0.63;;;22.10;54.30;;;;;;5023089;28;20052;-80
2023/03/24 11:57:16;;;;;;;4.38;1.02;;;22.20;54.50;;;;;;4996210;28;20105;-79
2023/03/24 12:00:00;;;;;;;2.45;0.90;;;22.40;55.50;;;;;;5012986;28;20068;-80
2023/03/24 12:03:06;;;;;;;2.50;0.80;;;22.30;53.40;;;;;;5023678;28;20060;-80
2023/03/24 12:06:21;;;;;;;4.32;1.02;;;22.50;54.70;;;;;;5014315;28;20049;-80
2023/03/24 12:09:18;;;;;;;3.15;0.85;;;22.50;53.80;;;;;;5004054;28;20182;-79
2023/03/24 12:12:17;;;;;;;4.90;0.90;;;22.60;53.10;;;;;;4988492;28;20056;-79
2023/03/24 12:15:03;;;;;;;5.18;0.73;;;22.40;52.90;;;;;;4976639;28;20085;-78
2023/03/24 12:17:55;;;;;;;2.22;0.80;;;22.30;53.10;;;;;;5016054;28;20865;-80
2023/03/24 12:20:46;;;;;;;2.13;0.70;;;22.20;53.90;;;;;;5001018;28;20056;-79
2023/03/24 12:23:24;;;;;;;1.55;0.70;;;22.20;53.30;;;;;;4956441;28;20147;-80
2023/03/24 12:25:59;;;;;;;6.07;0.70;;;21.90;53.70;;;;;;5010596;28;22357;-79
2023/03/24 12:29:02;;;;;;;3.97;1.10;;;21.90;52.90;;;;;;5019562;28;20049;-80
2023/03/24 12:31:59;;;;;;;2.67;0.47;;;21.90;53.30;;;;;;4969738;28;20056;-80
2023/03/24 12:34:56;;;;;;;2.97;0.60;;;22.20;53.30;;;;;;5006533;28;20061;-80
2023/03/24 12:37:42;;;;;;;4.35;0.70;;;22.40;53.10;;;;;;4984435;28;20061;-78
2023/03/24 12:40:31;;;;;;;1.88;0.50;;;22.40;52.40;;;;;;5003535;28;23060;-79
2023/03/24 12:43:35;;;;;;;3.22;0.65;;;22.30;52.20;;;;;;5004909;28;20122;-80
2023/03/24 12:46:31;;;;;;;2.58;0.47;;;22.40;52.40;;;;;;4973539;28;20075;-79
2023/03/24 12:49:39;;;;;;;3.63;0.70;;;22.20;52.60;;;;;;5007980;28;21431;-80
2023/03/24 12:52:21;;;;;;;3.45;0.60;;;22.20;53.00;;;;;;5034710;28;20434;-80
2023/03/24 12:54:51;;;;;;;3.67;0.60;;;22.40;52.90;;;;;;5004162;28;20164;-80
2023/03/24 12:57:24;;;;;;;2.38;0.50;;;22.40;52.50;;;;;;5016676;28;20049;-80
2023/03/24 13:00:10;;;;;;;4.28;0.80;;;22.20;53.00;;;;;;4990946;28;20126;-77
2023/03/24 13:02:49;;;;;;;5.18;0.80;;;22.10;52.80;;;;;;4993193;28;20053;-79
2023/03/24 13:05:26;;;;;;;5.60;1.23;;;21.90;53.50;;;;;;4993957;28;20045;-80
2023/03/24 13:07:58;;;;;;;2.80;0.60;;;21.90;53.60;;;;;;4996113;28;20969;-79
2023/03/24 13:10:32;;;;;;;2.15;0.88;;;21.70;53.60;;;;;;5007394;28;20053;-78
2023/03/24 13:12:59;;;;;;;5.18;0.90;;;21.70;54.00;;;;;;5029962;28;20174;-79
2023/03/24 13:15:43;;;;;;;3.08;0.82;;;21.90;54.40;;;;;;5009657;28;20040;-79
2023/03/24 13:18:10;;;;;;;3.05;0.70;;;22.20;54.30;;;;;;4993074;28;20045;-81
2023/03/24 13:20:54;;;;;;;3.03;0.88;;;22.20;53.90;;;;;;5003457;28;20091;-77
2023/03/24 13:23:59;;;;;;;2.03;0.60;;;22.20;53.60;;;;;;5014223;28;20445;-80
2023/03/24 13:26:49;;;;;;;9.73;2.05;;;22.40;53.50;;;;;;4989551;28;20527;-79
2023/03/24 13:29:39;;;;;;;2.28;0.93;;;22.50;53.30;;;;;;5007780;28;20055;-79
2023/03/24 13:32:24;;;;;;;2.58;0.98;;;22.80;53.80;;;;;;5009513;28;20052;-80
2023/03/24 13:35:12;;;;;;;1.95;0.80;;;22.90;53.20;;;;;;5013385;28;20115;-79
2023/03/24 13:37:56;;;;;;;5.97;0.77;;;23.10;53.80;;;;;;5028760;28;20048;-79
2023/03/24 13:40:29;;;;;;;2.08;0.70;;;23.10;52.30;;;;;;5012121;28;20082;-80
2023/03/24 13:42:58;;;;;;;7.38;0.73;;;23.00;52.80;;;;;;5014899;28;20044;-80
2023/03/24 13:45:39;;;;;;;3.17;0.77;;;23.20;52.70;;;;;;5007491;28;20048;-80
2023/03/24 13:48:10;;;;;;;3.75;0.70;;;23.20;53.10;;;;;;5016673;28;20599;-80
2023/03/24 13:51:17;;;;;;;5.20;1.00;;;23.00;53.30;;;;;;5005168;28;20721;-79
2023/03/24 13:53:50;;;;;;;4.68;1.40;;;22.90;52.50;;;;;;5030552;28;20453;-79
2023/03/24 13:56:49;;;;;;;2.67;0.60;;;22.50;52.60;;;;;;5041098;28;20040;-80